Kennedy, Minnesota
Current Conditions -  °F | °C
As of 1:13 AM on Friday 31 Oct 2014 (Local Time) from KHCO Reporting Station
Clear Clear  
Wind Chill: 10°   Ceiling: Unl
Heat Index: 19°   Visibility: 10mi
Dew Point: 16°   Wind: 7mph
Humidity: 86%   Direction: 340°NNW
Pressure: 30.6"   Gusts: NA
Location:  48.64°N, 96.91°W
Report Text: KHCO 310613Z AUTO 34006KT 10SM CLR M07/M09 A3060 RMK AO2
Loading
Personal Weather Stations






























Interactive Weather Map
Tropical Storm Tracking
New forecast layout! Learn more

10-Day Weather Forecast

Advertisements
Track Severe Weather on mobile